sensor_id;sensor_type;location;lat;lon;timestamp;P1;durP1;ratioP1;P2;durP2;ratioP2
3755;SDS011;1893;52.526;13.360;2022-10-15T00:00:35;28.07;;;18.23;;
3755;SDS011;1893;52.526;13.360;2022-10-15T00:03:01;33.17;;;20.33;;
3755;SDS011;1893;52.526;13.360;2022-10-15T00:05:27;32.83;;;20.80;;
3755;SDS011;1893;52.526;13.360;2022-10-15T00:07:53;29.87;;;19.40;;
3755;SDS011;1893;52.526;13.360;2022-10-15T00:10:19;28.53;;;19.60;;
3755;SDS011;1893;52.526;13.360;2022-10-15T00:12:44;30.10;;;21.53;;
3755;SDS011;1893;52.526;13.360;2022-10-15T00:15:10;27.37;;;18.90;;
3755;SDS011;1893;52.526;13.360;2022-10-15T00:17:37;31.70;;;22.17;;
3755;SDS011;1893;52.526;13.360;2022-10-15T00:20:03;34.10;;;20.63;;
3755;SDS011;1893;52.526;13.360;2022-10-15T00:22:31;29.83;;;20.87;;
3755;SDS011;1893;52.526;13.360;2022-10-15T00:24:56;32.37;;;21.43;;
3755;SDS011;1893;52.526;13.360;2022-10-15T00:27:22;35.30;;;23.50;;
3755;SDS011;1893;52.526;13.360;2022-10-15T00:29:48;31.53;;;22.90;;
3755;SDS011;1893;52.526;13.360;2022-10-15T00:32:14;36.10;;;23.50;;
3755;SDS011;1893;52.526;13.360;2022-10-15T00:34:39;36.10;;;22.40;;
3755;SDS011;1893;52.526;13.360;2022-10-15T00:37:05;34.57;;;22.43;;
3755;SDS011;1893;52.526;13.360;2022-10-15T00:39:31;35.10;;;23.33;;
3755;SDS011;1893;52.526;13.360;2022-10-15T00:41:57;31.67;;;21.87;;
3755;SDS011;1893;52.526;13.360;2022-10-15T00:46:48;41.23;;;24.70;;
3755;SDS011;1893;52.526;13.360;2022-10-15T00:49:30;37.33;;;23.80;;
3755;SDS011;1893;52.526;13.360;2022-10-15T00:54:31;35.23;;;23.67;;
3755;SDS011;1893;52.526;13.360;2022-10-15T00:57:00;38.67;;;24.20;;
3755;SDS011;1893;52.526;13.360;2022-10-15T00:59:26;36.70;;;24.97;;
3755;SDS011;1893;52.526;13.360;2022-10-15T01:01:53;40.10;;;25.50;;
3755;SDS011;1893;52.526;13.360;2022-10-15T01:04:19;40.33;;;25.90;;
3755;SDS011;1893;52.526;13.360;2022-10-15T01:06:45;45.00;;;26.50;;
3755;SDS011;1893;52.526;13.360;2022-10-15T01:09:11;36.33;;;24.80;;
3755;SDS011;1893;52.526;13.360;2022-10-15T01:16:58;40.03;;;26.50;;
3755;SDS011;1893;52.526;13.360;2022-10-15T01:30:54;43.13;;;24.57;;
3755;SDS011;1893;52.526;13.360;2022-10-15T01:34:32;43.27;;;24.07;;
3755;SDS011;1893;52.526;13.360;2022-10-15T01:37:03;39.30;;;25.67;;
3755;SDS011;1893;52.526;13.360;2022-10-15T01:39:36;40.07;;;26.00;;
3755;SDS011;1893;52.526;13.360;2022-10-15T01:42:15;41.50;;;25.40;;
3755;SDS011;1893;52.526;13.360;2022-10-15T01:44:56;39.57;;;23.40;;
3755;SDS011;1893;52.526;13.360;2022-10-15T01:47:34;45.50;;;27.27;;
3755;SDS011;1893;52.526;13.360;2022-10-15T01:50:02;47.90;;;27.90;;
3755;SDS011;1893;52.526;13.360;2022-10-15T01:52:30;34.40;;;23.80;;
3755;SDS011;1893;52.526;13.360;2022-10-15T01:55:00;39.07;;;24.27;;
3755;SDS011;1893;52.526;13.360;2022-10-15T01:57:28;46.60;;;26.40;;
3755;SDS011;1893;52.526;13.360;2022-10-15T01:59:56;38.40;;;25.87;;
3755;SDS011;1893;52.526;13.360;2022-10-15T02:02:23;46.13;;;27.17;;
3755;SDS011;1893;52.526;13.360;2022-10-15T02:04:49;45.97;;;26.20;;
3755;SDS011;1893;52.526;13.360;2022-10-15T02:07:17;44.27;;;25.30;;
3755;SDS011;1893;52.526;13.360;2022-10-15T02:23:49;45.27;;;27.67;;
3755;SDS011;1893;52.526;13.360;2022-10-15T02:26:20;40.13;;;24.20;;
3755;SDS011;1893;52.526;13.360;2022-10-15T02:28:51;40.57;;;25.40;;
3755;SDS011;1893;52.526;13.360;2022-10-15T02:31:19;43.00;;;26.47;;
3755;SDS011;1893;52.526;13.360;2022-10-15T02:33:47;42.33;;;26.10;;
3755;SDS011;1893;52.526;13.360;2022-10-15T02:36:16;40.50;;;25.50;;
3755;SDS011;1893;52.526;13.360;2022-10-15T02:38:43;43.67;;;24.73;;
3755;SDS011;1893;52.526;13.360;2022-10-15T02:41:09;56.87;;;26.67;;
3755;SDS011;1893;52.526;13.360;2022-10-15T02:43:36;40.13;;;27.07;;
3755;SDS011;1893;52.526;13.360;2022-10-15T02:46:03;45.07;;;25.77;;
3755;SDS011;1893;52.526;13.360;2022-10-15T02:48:29;46.10;;;26.10;;
3755;SDS011;1893;52.526;13.360;2022-10-15T02:50:55;43.60;;;26.67;;
3755;SDS011;1893;52.526;13.360;2022-10-15T02:53:20;39.33;;;26.43;;
3755;SDS011;1893;52.526;13.360;2022-10-15T02:55:46;43.10;;;27.03;;
3755;SDS011;1893;52.526;13.360;2022-10-15T02:58:11;44.53;;;26.30;;
3755;SDS011;1893;52.526;13.360;2022-10-15T03:00:37;42.37;;;26.50;;
3755;SDS011;1893;52.526;13.360;2022-10-15T03:03:03;41.50;;;26.40;;
3755;SDS011;1893;52.526;13.360;2022-10-15T03:05:28;44.00;;;27.87;;
3755;SDS011;1893;52.526;13.360;2022-10-15T03:07:54;45.03;;;27.53;;
3755;SDS011;1893;52.526;13.360;2022-10-15T03:10:20;42.00;;;25.57;;
3755;SDS011;1893;52.526;13.360;2022-10-15T03:12:45;44.97;;;28.30;;
3755;SDS011;1893;52.526;13.360;2022-10-15T03:15:11;45.53;;;27.73;;
3755;SDS011;1893;52.526;13.360;2022-10-15T03:17:36;45.30;;;26.57;;
3755;SDS011;1893;52.526;13.360;2022-10-15T03:20:02;41.50;;;25.23;;
3755;SDS011;1893;52.526;13.360;2022-10-15T03:22:28;37.23;;;26.77;;
3755;SDS011;1893;52.526;13.360;2022-10-15T03:24:54;42.03;;;24.80;;
3755;SDS011;1893;52.526;13.360;2022-10-15T03:27:19;47.50;;;27.23;;
3755;SDS011;1893;52.526;13.360;2022-10-15T03:29:45;41.83;;;26.30;;
3755;SDS011;1893;52.526;13.360;2022-10-15T03:32:10;40.93;;;27.43;;
3755;SDS011;1893;52.526;13.360;2022-10-15T03:34:36;43.70;;;26.40;;
3755;SDS011;1893;52.526;13.360;2022-10-15T03:37:01;40.47;;;26.47;;
3755;SDS011;1893;52.526;13.360;2022-10-15T03:39:27;45.30;;;28.27;;
3755;SDS011;1893;52.526;13.360;2022-10-15T03:41:52;46.37;;;26.27;;
3755;SDS011;1893;52.526;13.360;2022-10-15T03:44:18;40.20;;;24.90;;
3755;SDS011;1893;52.526;13.360;2022-10-15T03:46:43;48.10;;;28.43;;
3755;SDS011;1893;52.526;13.360;2022-10-15T03:49:09;42.60;;;28.10;;
3755;SDS011;1893;52.526;13.360;2022-10-15T03:51:35;43.10;;;26.37;;
3755;SDS011;1893;52.526;13.360;2022-10-15T03:54:01;40.03;;;26.17;;
3755;SDS011;1893;52.526;13.360;2022-10-15T03:56:27;45.40;;;25.60;;
3755;SDS011;1893;52.526;13.360;2022-10-15T03:58:52;47.53;;;26.50;;
3755;SDS011;1893;52.526;13.360;2022-10-15T04:01:18;45.63;;;26.90;;
3755;SDS011;1893;52.526;13.360;2022-10-15T04:03:44;43.63;;;27.03;;
3755;SDS011;1893;52.526;13.360;2022-10-15T04:06:09;39.27;;;24.13;;
3755;SDS011;1893;52.526;13.360;2022-10-15T04:08:35;43.17;;;26.40;;
3755;SDS011;1893;52.526;13.360;2022-10-15T04:11:00;41.80;;;26.57;;
3755;SDS011;1893;52.526;13.360;2022-10-15T04:13:26;45.53;;;24.40;;
3755;SDS011;1893;52.526;13.360;2022-10-15T04:15:53;39.40;;;26.73;;
3755;SDS011;1893;52.526;13.360;2022-10-15T04:18:19;42.73;;;26.50;;
3755;SDS011;1893;52.526;13.360;2022-10-15T04:20:46;44.90;;;26.73;;
3755;SDS011;1893;52.526;13.360;2022-10-15T04:23:12;42.43;;;26.60;;
3755;SDS011;1893;52.526;13.360;2022-10-15T04:25:38;41.40;;;26.27;;
3755;SDS011;1893;52.526;13.360;2022-10-15T04:28:04;38.77;;;25.73;;
3755;SDS011;1893;52.526;13.360;2022-10-15T04:30:31;41.93;;;25.10;;
3755;SDS011;1893;52.526;13.360;2022-10-15T04:32:57;42.87;;;25.37;;
3755;SDS011;1893;52.526;13.360;2022-10-15T04:35:23;43.47;;;26.00;;
3755;SDS011;1893;52.526;13.360;2022-10-15T04:37:48;42.67;;;26.70;;
3755;SDS011;1893;52.526;13.360;2022-10-15T04:40:14;45.57;;;26.40;;
3755;SDS011;1893;52.526;13.360;2022-10-15T04:42:40;42.43;;;24.40;;
3755;SDS011;1893;52.526;13.360;2022-10-15T04:45:06;41.53;;;25.70;;
3755;SDS011;1893;52.526;13.360;2022-10-15T04:47:32;39.80;;;24.70;;
3755;SDS011;1893;52.526;13.360;2022-10-15T04:49:58;40.93;;;24.57;;
3755;SDS011;1893;52.526;13.360;2022-10-15T04:52:23;37.90;;;25.47;;
3755;SDS011;1893;52.526;13.360;2022-10-15T04:54:49;45.77;;;25.53;;
3755;SDS011;1893;52.526;13.360;2022-10-15T04:57:14;42.73;;;25.30;;
3755;SDS011;1893;52.526;13.360;2022-10-15T04:59:40;42.03;;;25.27;;
3755;SDS011;1893;52.526;13.360;2022-10-15T05:02:06;43.03;;;25.37;;
3755;SDS011;1893;52.526;13.360;2022-10-15T05:04:32;38.00;;;24.60;;
3755;SDS011;1893;52.526;13.360;2022-10-15T05:06:57;36.90;;;24.10;;
3755;SDS011;1893;52.526;13.360;2022-10-15T05:09:23;35.23;;;23.07;;
3755;SDS011;1893;52.526;13.360;2022-10-15T05:11:48;38.60;;;23.90;;
3755;SDS011;1893;52.526;13.360;2022-10-15T05:14:14;38.73;;;24.17;;
3755;SDS011;1893;52.526;13.360;2022-10-15T05:16:39;37.27;;;23.40;;
3755;SDS011;1893;52.526;13.360;2022-10-15T05:19:06;35.63;;;23.20;;
3755;SDS011;1893;52.526;13.360;2022-10-15T05:21:33;36.13;;;21.93;;
3755;SDS011;1893;52.526;13.360;2022-10-15T05:23:59;35.70;;;23.27;;
3755;SDS011;1893;52.526;13.360;2022-10-15T05:26:25;40.80;;;22.30;;
3755;SDS011;1893;52.526;13.360;2022-10-15T05:28:52;36.97;;;23.43;;
3755;SDS011;1893;52.526;13.360;2022-10-15T05:31:20;31.90;;;23.03;;
3755;SDS011;1893;52.526;13.360;2022-10-15T05:33:48;33.90;;;22.40;;
3755;SDS011;1893;52.526;13.360;2022-10-15T05:38:43;39.50;;;23.80;;
3755;SDS011;1893;52.526;13.360;2022-10-15T05:41:10;34.30;;;21.50;;
3755;SDS011;1893;52.526;13.360;2022-10-15T05:43:35;38.13;;;24.80;;
3755;SDS011;1893;52.526;13.360;2022-10-15T05:46:01;35.07;;;22.77;;
3755;SDS011;1893;52.526;13.360;2022-10-15T05:48:27;36.27;;;23.97;;
3755;SDS011;1893;52.526;13.360;2022-10-15T05:50:52;34.03;;;22.97;;
3755;SDS011;1893;52.526;13.360;2022-10-15T05:53:18;32.00;;;20.63;;
3755;SDS011;1893;52.526;13.360;2022-10-15T05:55:44;36.10;;;22.30;;
3755;SDS011;1893;52.526;13.360;2022-10-15T05:58:09;31.77;;;21.00;;
3755;SDS011;1893;52.526;13.360;2022-10-15T06:00:35;30.20;;;18.40;;
3755;SDS011;1893;52.526;13.360;2022-10-15T06:03:00;30.37;;;21.67;;
3755;SDS011;1893;52.526;13.360;2022-10-15T06:05:26;35.93;;;21.07;;
3755;SDS011;1893;52.526;13.360;2022-10-15T06:07:52;35.70;;;20.80;;
3755;SDS011;1893;52.526;13.360;2022-10-15T06:10:17;31.33;;;20.90;;
3755;SDS011;1893;52.526;13.360;2022-10-15T06:12:47;35.43;;;20.83;;
3755;SDS011;1893;52.526;13.360;2022-10-15T06:15:16;34.90;;;22.43;;
3755;SDS011;1893;52.526;13.360;2022-10-15T06:17:43;35.80;;;21.33;;
3755;SDS011;1893;52.526;13.360;2022-10-15T06:20:09;31.33;;;21.10;;
3755;SDS011;1893;52.526;13.360;2022-10-15T06:22:35;29.13;;;19.10;;
3755;SDS011;1893;52.526;13.360;2022-10-15T06:25:00;31.83;;;19.90;;
3755;SDS011;1893;52.526;13.360;2022-10-15T06:27:26;30.10;;;18.73;;
3755;SDS011;1893;52.526;13.360;2022-10-15T06:29:52;30.60;;;21.00;;
3755;SDS011;1893;52.526;13.360;2022-10-15T06:32:17;30.83;;;20.83;;
3755;SDS011;1893;52.526;13.360;2022-10-15T06:34:43;31.27;;;21.27;;
3755;SDS011;1893;52.526;13.360;2022-10-15T06:37:08;32.50;;;21.23;;
3755;SDS011;1893;52.526;13.360;2022-10-15T06:39:34;29.00;;;20.13;;
3755;SDS011;1893;52.526;13.360;2022-10-15T06:41:59;27.97;;;18.60;;
3755;SDS011;1893;52.526;13.360;2022-10-15T06:44:25;35.80;;;20.47;;
3755;SDS011;1893;52.526;13.360;2022-10-15T06:46:50;30.97;;;18.60;;
3755;SDS011;1893;52.526;13.360;2022-10-15T06:49:16;28.90;;;18.27;;
3755;SDS011;1893;52.526;13.360;2022-10-15T06:51:41;26.60;;;19.00;;
3755;SDS011;1893;52.526;13.360;2022-10-15T06:54:07;27.30;;;18.13;;
3755;SDS011;1893;52.526;13.360;2022-10-15T06:56:32;26.80;;;19.13;;
3755;SDS011;1893;52.526;13.360;2022-10-15T06:58:58;24.53;;;16.60;;
3755;SDS011;1893;52.526;13.360;2022-10-15T07:01:23;27.23;;;15.50;;
3755;SDS011;1893;52.526;13.360;2022-10-15T07:03:49;21.20;;;15.53;;
3755;SDS011;1893;52.526;13.360;2022-10-15T07:06:15;25.03;;;16.07;;
3755;SDS011;1893;52.526;13.360;2022-10-15T07:08:41;18.90;;;15.73;;
3755;SDS011;1893;52.526;13.360;2022-10-15T07:11:08;22.80;;;16.50;;
3755;SDS011;1893;52.526;13.360;2022-10-15T07:13:34;21.20;;;15.30;;
3755;SDS011;1893;52.526;13.360;2022-10-15T07:16:07;25.40;;;17.70;;
3755;SDS011;1893;52.526;13.360;2022-10-15T07:18:34;18.57;;;15.00;;
3755;SDS011;1893;52.526;13.360;2022-10-15T07:21:00;23.40;;;17.10;;
3755;SDS011;1893;52.526;13.360;2022-10-15T07:23:26;23.43;;;16.20;;
3755;SDS011;1893;52.526;13.360;2022-10-15T07:25:53;21.50;;;16.03;;
3755;SDS011;1893;52.526;13.360;2022-10-15T07:28:21;23.30;;;15.37;;
3755;SDS011;1893;52.526;13.360;2022-10-15T07:30:47;25.30;;;16.80;;
3755;SDS011;1893;52.526;13.360;2022-10-15T07:33:12;22.93;;;16.70;;
3755;SDS011;1893;52.526;13.360;2022-10-15T07:35:38;20.27;;;15.63;;
3755;SDS011;1893;52.526;13.360;2022-10-15T07:38:04;20.83;;;15.80;;
3755;SDS011;1893;52.526;13.360;2022-10-15T07:40:29;20.33;;;15.70;;
3755;SDS011;1893;52.526;13.360;2022-10-15T07:42:55;20.83;;;14.73;;
3755;SDS011;1893;52.526;13.360;2022-10-15T07:45:22;19.97;;;15.73;;
3755;SDS011;1893;52.526;13.360;2022-10-15T07:47:48;22.87;;;16.50;;
3755;SDS011;1893;52.526;13.360;2022-10-15T07:50:14;18.03;;;14.90;;
3755;SDS011;1893;52.526;13.360;2022-10-15T07:52:39;18.10;;;14.70;;
3755;SDS011;1893;52.526;13.360;2022-10-15T07:55:05;16.70;;;14.03;;
3755;SDS011;1893;52.526;13.360;2022-10-15T07:57:31;19.00;;;14.43;;
3755;SDS011;1893;52.526;13.360;2022-10-15T07:59:56;18.73;;;13.57;;
3755;SDS011;1893;52.526;13.360;2022-10-15T08:02:22;16.87;;;13.33;;
3755;SDS011;1893;52.526;13.360;2022-10-15T08:04:47;14.23;;;11.73;;
3755;SDS011;1893;52.526;13.360;2022-10-15T08:07:13;14.70;;;12.10;;
3755;SDS011;1893;52.526;13.360;2022-10-15T08:09:39;15.50;;;11.30;;
3755;SDS011;1893;52.526;13.360;2022-10-15T08:12:04;20.47;;;12.03;;
3755;SDS011;1893;52.526;13.360;2022-10-15T08:14:31;12.60;;;10.77;;
3755;SDS011;1893;52.526;13.360;2022-10-15T08:16:57;12.73;;;10.73;;
3755;SDS011;1893;52.526;13.360;2022-10-15T08:19:23;15.00;;;11.90;;
3755;SDS011;1893;52.526;13.360;2022-10-15T08:21:48;11.83;;;10.53;;
3755;SDS011;1893;52.526;13.360;2022-10-15T08:24:14;14.50;;;10.60;;
3755;SDS011;1893;52.526;13.360;2022-10-15T08:26:39;14.70;;;11.17;;
3755;SDS011;1893;52.526;13.360;2022-10-15T08:29:05;12.80;;;10.40;;
3755;SDS011;1893;52.526;13.360;2022-10-15T08:31:30;11.60;;;10.13;;
3755;SDS011;1893;52.526;13.360;2022-10-15T08:34:00;9.70;;;8.70;;
3755;SDS011;1893;52.526;13.360;2022-10-15T08:36:26;12.00;;;9.67;;
3755;SDS011;1893;52.526;13.360;2022-10-15T08:38:51;11.60;;;9.50;;
3755;SDS011;1893;52.526;13.360;2022-10-15T08:41:25;10.97;;;9.77;;
3755;SDS011;1893;52.526;13.360;2022-10-15T08:44:01;11.67;;;9.20;;
3755;SDS011;1893;52.526;13.360;2022-10-15T08:46:29;11.13;;;9.77;;
3755;SDS011;1893;52.526;13.360;2022-10-15T08:49:00;13.57;;;10.27;;
3755;SDS011;1893;52.526;13.360;2022-10-15T08:51:40;9.80;;;8.67;;
3755;SDS011;1893;52.526;13.360;2022-10-15T08:54:16;17.77;;;12.20;;
3755;SDS011;1893;52.526;13.360;2022-10-15T08:56:44;9.03;;;8.10;;
3755;SDS011;1893;52.526;13.360;2022-10-15T08:59:33;12.23;;;8.70;;
3755;SDS011;1893;52.526;13.360;2022-10-15T09:02:18;10.90;;;9.43;;
3755;SDS011;1893;52.526;13.360;2022-10-15T09:05:16;10.40;;;8.67;;
3755;SDS011;1893;52.526;13.360;2022-10-15T09:13:13;11.17;;;10.07;;
3755;SDS011;1893;52.526;13.360;2022-10-15T09:15:50;10.10;;;9.03;;
3755;SDS011;1893;52.526;13.360;2022-10-15T09:18:30;14.90;;;9.90;;
3755;SDS011;1893;52.526;13.360;2022-10-15T09:20:58;9.67;;;8.67;;
3755;SDS011;1893;52.526;13.360;2022-10-15T09:23:25;12.70;;;10.10;;
3755;SDS011;1893;52.526;13.360;2022-10-15T09:26:07;12.67;;;10.63;;
3755;SDS011;1893;52.526;13.360;2022-10-15T09:28:46;11.10;;;9.67;;
3755;SDS011;1893;52.526;13.360;2022-10-15T09:31:22;9.87;;;8.73;;
3755;SDS011;1893;52.526;13.360;2022-10-15T09:33:58;11.07;;;8.50;;
3755;SDS011;1893;52.526;13.360;2022-10-15T09:36:39;10.60;;;8.93;;
3755;SDS011;1893;52.526;13.360;2022-10-15T09:44:41;10.50;;;8.83;;
3755;SDS011;1893;52.526;13.360;2022-10-15T09:47:15;14.00;;;9.77;;
3755;SDS011;1893;52.526;13.360;2022-10-15T09:49:46;11.40;;;9.43;;
3755;SDS011;1893;52.526;13.360;2022-10-15T09:52:16;10.97;;;9.87;;
3755;SDS011;1893;52.526;13.360;2022-10-15T09:54:54;10.23;;;8.83;;
3755;SDS011;1893;52.526;13.360;2022-10-15T09:57:32;11.23;;;10.13;;
3755;SDS011;1893;52.526;13.360;2022-10-15T10:00:00;11.23;;;9.60;;
3755;SDS011;1893;52.526;13.360;2022-10-15T10:02:33;10.23;;;9.00;;
3755;SDS011;1893;52.526;13.360;2022-10-15T10:05:06;10.03;;;9.00;;
3755;SDS011;1893;52.526;13.360;2022-10-15T10:07:44;9.73;;;8.60;;
3755;SDS011;1893;52.526;13.360;2022-10-15T10:10:23;11.27;;;9.10;;
3755;SDS011;1893;52.526;13.360;2022-10-15T10:12:51;10.07;;;7.80;;
3755;SDS011;1893;52.526;13.360;2022-10-15T10:17:58;12.90;;;8.40;;
3755;SDS011;1893;52.526;13.360;2022-10-15T10:20:25;10.90;;;9.67;;
3755;SDS011;1893;52.526;13.360;2022-10-15T10:22:54;10.00;;;8.67;;
3755;SDS011;1893;52.526;13.360;2022-10-15T10:27:53;10.23;;;8.77;;
3755;SDS011;1893;52.526;13.360;2022-10-15T10:30:19;9.37;;;8.47;;
3755;SDS011;1893;52.526;13.360;2022-10-15T10:32:45;9.90;;;8.90;;
3755;SDS011;1893;52.526;13.360;2022-10-15T10:35:15;7.80;;;7.10;;
3755;SDS011;1893;52.526;13.360;2022-10-15T10:37:45;9.63;;;8.63;;
3755;SDS011;1893;52.526;13.360;2022-10-15T10:40:25;11.10;;;7.80;;
3755;SDS011;1893;52.526;13.360;2022-10-15T10:45:51;9.40;;;8.50;;
3755;SDS011;1893;52.526;13.360;2022-10-15T10:48:18;9.47;;;8.57;;
3755;SDS011;1893;52.526;13.360;2022-10-15T10:50:53;10.27;;;8.30;;
3755;SDS011;1893;52.526;13.360;2022-10-15T10:53:27;13.70;;;9.80;;
3755;SDS011;1893;52.526;13.360;2022-10-15T10:55:53;10.50;;;8.90;;
3755;SDS011;1893;52.526;13.360;2022-10-15T10:58:21;10.37;;;9.10;;
3755;SDS011;1893;52.526;13.360;2022-10-15T11:00:51;11.07;;;8.37;;
3755;SDS011;1893;52.526;13.360;2022-10-15T11:12:09;8.57;;;7.60;;
3755;SDS011;1893;52.526;13.360;2022-10-15T11:25:46;7.47;;;6.73;;
3755;SDS011;1893;52.526;13.360;2022-10-15T11:28:38;9.43;;;6.70;;
3755;SDS011;1893;52.526;13.360;2022-10-15T11:42:24;6.40;;;5.47;;
3755;SDS011;1893;52.526;13.360;2022-10-15T11:47:53;6.97;;;6.27;;
3755;SDS011;1893;52.526;13.360;2022-10-15T11:56:03;4.83;;;4.43;;
3755;SDS011;1893;52.526;13.360;2022-10-15T12:01:11;7.10;;;5.63;;
3755;SDS011;1893;52.526;13.360;2022-10-15T12:03:50;8.00;;;6.23;;
3755;SDS011;1893;52.526;13.360;2022-10-15T12:06:25;5.90;;;5.33;;
3755;SDS011;1893;52.526;13.360;2022-10-15T12:08:56;7.63;;;5.77;;
3755;SDS011;1893;52.526;13.360;2022-10-15T12:13:52;5.20;;;4.70;;
3755;SDS011;1893;52.526;13.360;2022-10-15T12:24:54;5.30;;;4.80;;
3755;SDS011;1893;52.526;13.360;2022-10-15T12:29:48;4.77;;;4.40;;
3755;SDS011;1893;52.526;13.360;2022-10-15T12:32:29;4.77;;;4.37;;
3755;SDS011;1893;52.526;13.360;2022-10-15T12:35:01;5.10;;;4.70;;
3755;SDS011;1893;52.526;13.360;2022-10-15T12:37:31;8.17;;;5.40;;
3755;SDS011;1893;52.526;13.360;2022-10-15T12:40:06;4.43;;;3.83;;
3755;SDS011;1893;52.526;13.360;2022-10-15T12:43:29;4.67;;;4.27;;
3755;SDS011;1893;52.526;13.360;2022-10-15T12:45:38;4.50;;;4.10;;
3755;SDS011;1893;52.526;13.360;2022-10-15T12:50:40;5.07;;;4.67;;
3755;SDS011;1893;52.526;13.360;2022-10-15T12:58:44;5.33;;;3.93;;
3755;SDS011;1893;52.526;13.360;2022-10-15T13:11:27;3.20;;;2.97;;
3755;SDS011;1893;52.526;13.360;2022-10-15T13:13:58;3.50;;;3.20;;
3755;SDS011;1893;52.526;13.360;2022-10-15T13:16:36;4.67;;;3.73;;
3755;SDS011;1893;52.526;13.360;2022-10-15T13:19:15;3.50;;;3.20;;
3755;SDS011;1893;52.526;13.360;2022-10-15T13:21:45;2.90;;;2.70;;
3755;SDS011;1893;52.526;13.360;2022-10-15T13:24:19;4.33;;;3.20;;
3755;SDS011;1893;52.526;13.360;2022-10-15T13:26:47;3.20;;;3.00;;
3755;SDS011;1893;52.526;13.360;2022-10-15T13:29:14;3.57;;;3.27;;
3755;SDS011;1893;52.526;13.360;2022-10-15T13:31:50;3.30;;;3.00;;
3755;SDS011;1893;52.526;13.360;2022-10-15T13:36:49;3.10;;;2.30;;
3755;SDS011;1893;52.526;13.360;2022-10-15T13:39:32;3.50;;;2.40;;
3755;SDS011;1893;52.526;13.360;2022-10-15T13:44:40;3.03;;;2.70;;
3755;SDS011;1893;52.526;13.360;2022-10-15T13:53:02;2.83;;;2.63;;
3755;SDS011;1893;52.526;13.360;2022-10-15T13:55:47;3.40;;;2.90;;
3755;SDS011;1893;52.526;13.360;2022-10-15T13:58:18;2.77;;;2.33;;
3755;SDS011;1893;52.526;13.360;2022-10-15T14:01:08;2.77;;;2.57;;
3755;SDS011;1893;52.526;13.360;2022-10-15T14:03:44;3.07;;;2.50;;
3755;SDS011;1893;52.526;13.360;2022-10-15T14:06:18;6.80;;;2.20;;
3755;SDS011;1893;52.526;13.360;2022-10-15T14:08:45;2.40;;;2.30;;
3755;SDS011;1893;52.526;13.360;2022-10-15T14:11:12;5.07;;;2.97;;
3755;SDS011;1893;52.526;13.360;2022-10-15T14:13:48;2.93;;;2.73;;
3755;SDS011;1893;52.526;13.360;2022-10-15T14:18:56;4.60;;;2.60;;
3755;SDS011;1893;52.526;13.360;2022-10-15T14:21:32;2.93;;;2.63;;
3755;SDS011;1893;52.526;13.360;2022-10-15T14:24:06;2.90;;;2.70;;
3755;SDS011;1893;52.526;13.360;2022-10-15T14:26:37;2.70;;;2.50;;
3755;SDS011;1893;52.526;13.360;2022-10-15T14:29:04;3.00;;;2.70;;
3755;SDS011;1893;52.526;13.360;2022-10-15T14:31:35;3.20;;;2.90;;
3755;SDS011;1893;52.526;13.360;2022-10-15T14:34:23;3.53;;;3.03;;
3755;SDS011;1893;52.526;13.360;2022-10-15T14:36:59;3.07;;;2.57;;
3755;SDS011;1893;52.526;13.360;2022-10-15T14:39:47;3.20;;;3.00;;
3755;SDS011;1893;52.526;13.360;2022-10-15T14:42:26;4.40;;;3.20;;
3755;SDS011;1893;52.526;13.360;2022-10-15T14:44:52;3.53;;;3.33;;
3755;SDS011;1893;52.526;13.360;2022-10-15T14:47:20;3.43;;;3.13;;
3755;SDS011;1893;52.526;13.360;2022-10-15T14:49:50;3.53;;;3.23;;
3755;SDS011;1893;52.526;13.360;2022-10-15T14:52:18;3.30;;;3.10;;
3755;SDS011;1893;52.526;13.360;2022-10-15T14:54:47;3.10;;;2.90;;
3755;SDS011;1893;52.526;13.360;2022-10-15T14:57:26;3.30;;;3.07;;
3755;SDS011;1893;52.526;13.360;2022-10-15T14:59:54;2.60;;;2.40;;
3755;SDS011;1893;52.526;13.360;2022-10-15T15:02:21;3.87;;;2.80;;
3755;SDS011;1893;52.526;13.360;2022-10-15T15:05:42;3.27;;;2.93;;
3755;SDS011;1893;52.526;13.360;2022-10-15T15:07:38;2.73;;;2.53;;
3755;SDS011;1893;52.526;13.360;2022-10-15T15:10:05;3.57;;;3.27;;
3755;SDS011;1893;52.526;13.360;2022-10-15T15:12:32;3.37;;;3.07;;
3755;SDS011;1893;52.526;13.360;2022-10-15T15:14:58;3.63;;;3.43;;
3755;SDS011;1893;52.526;13.360;2022-10-15T15:17:26;5.30;;;3.07;;
3755;SDS011;1893;52.526;13.360;2022-10-15T15:19:53;3.80;;;3.07;;
3755;SDS011;1893;52.526;13.360;2022-10-15T15:22:29;3.10;;;2.90;;
3755;SDS011;1893;52.526;13.360;2022-10-15T15:24:56;5.10;;;3.40;;
3755;SDS011;1893;52.526;13.360;2022-10-15T15:27:30;6.27;;;3.40;;
3755;SDS011;1893;52.526;13.360;2022-10-15T15:30:01;3.50;;;3.13;;
3755;SDS011;1893;52.526;13.360;2022-10-15T15:32:32;3.73;;;3.43;;
3755;SDS011;1893;52.526;13.360;2022-10-15T15:34:58;4.57;;;3.70;;
3755;SDS011;1893;52.526;13.360;2022-10-15T15:37:24;2.93;;;2.73;;
3755;SDS011;1893;52.526;13.360;2022-10-15T15:39:50;3.27;;;3.07;;
3755;SDS011;1893;52.526;13.360;2022-10-15T15:42:18;3.80;;;3.20;;
3755;SDS011;1893;52.526;13.360;2022-10-15T15:44:45;9.40;;;3.60;;
3755;SDS011;1893;52.526;13.360;2022-10-15T15:47:11;3.57;;;3.37;;
3755;SDS011;1893;52.526;13.360;2022-10-15T15:49:37;3.90;;;2.70;;
3755;SDS011;1893;52.526;13.360;2022-10-15T15:52:04;4.40;;;2.93;;
3755;SDS011;1893;52.526;13.360;2022-10-15T15:54:32;5.00;;;2.97;;
3755;SDS011;1893;52.526;13.360;2022-10-15T15:56:58;2.87;;;2.67;;
3755;SDS011;1893;52.526;13.360;2022-10-15T15:59:23;3.40;;;3.10;;
3755;SDS011;1893;52.526;13.360;2022-10-15T16:01:49;5.80;;;4.17;;
3755;SDS011;1893;52.526;13.360;2022-10-15T16:04:15;6.97;;;3.20;;
3755;SDS011;1893;52.526;13.360;2022-10-15T16:06:41;3.07;;;2.87;;
3755;SDS011;1893;52.526;13.360;2022-10-15T16:09:06;4.33;;;2.17;;
3755;SDS011;1893;52.526;13.360;2022-10-15T16:11:32;2.70;;;2.50;;
3755;SDS011;1893;52.526;13.360;2022-10-15T16:14:00;3.90;;;2.60;;
3755;SDS011;1893;52.526;13.360;2022-10-15T16:16:26;2.93;;;2.73;;
3755;SDS011;1893;52.526;13.360;2022-10-15T16:18:52;3.73;;;2.70;;
3755;SDS011;1893;52.526;13.360;2022-10-15T16:21:22;2.73;;;2.53;;
3755;SDS011;1893;52.526;13.360;2022-10-15T16:23:48;3.17;;;2.97;;
3755;SDS011;1893;52.526;13.360;2022-10-15T16:26:14;7.03;;;3.93;;
3755;SDS011;1893;52.526;13.360;2022-10-15T16:28:40;3.60;;;3.30;;
3755;SDS011;1893;52.526;13.360;2022-10-15T16:31:16;8.40;;;3.23;;
3755;SDS011;1893;52.526;13.360;2022-10-15T16:33:43;4.20;;;3.50;;
3755;SDS011;1893;52.526;13.360;2022-10-15T16:36:09;5.00;;;3.63;;
3755;SDS011;1893;52.526;13.360;2022-10-15T16:38:37;4.00;;;3.60;;
3755;SDS011;1893;52.526;13.360;2022-10-15T16:41:04;4.83;;;3.90;;
3755;SDS011;1893;52.526;13.360;2022-10-15T16:43:30;5.17;;;4.40;;
3755;SDS011;1893;52.526;13.360;2022-10-15T16:45:56;4.20;;;3.80;;
3755;SDS011;1893;52.526;13.360;2022-10-15T16:48:23;7.20;;;4.80;;
3755;SDS011;1893;52.526;13.360;2022-10-15T16:51:03;5.30;;;4.80;;
3755;SDS011;1893;52.526;13.360;2022-10-15T16:53:31;5.00;;;4.60;;
3755;SDS011;1893;52.526;13.360;2022-10-15T16:55:58;6.50;;;5.70;;
3755;SDS011;1893;52.526;13.360;2022-10-15T16:58:25;5.37;;;4.97;;
3755;SDS011;1893;52.526;13.360;2022-10-15T17:00:52;11.53;;;5.40;;
3755;SDS011;1893;52.526;13.360;2022-10-15T17:03:21;5.60;;;5.10;;
3755;SDS011;1893;52.526;13.360;2022-10-15T17:05:47;10.23;;;5.10;;
3755;SDS011;1893;52.526;13.360;2022-10-15T17:08:12;6.60;;;5.90;;
3755;SDS011;1893;52.526;13.360;2022-10-15T17:10:41;6.40;;;5.90;;
3755;SDS011;1893;52.526;13.360;2022-10-15T17:13:07;6.33;;;5.70;;
3755;SDS011;1893;52.526;13.360;2022-10-15T17:15:33;6.80;;;5.80;;
3755;SDS011;1893;52.526;13.360;2022-10-15T17:17:58;6.90;;;6.20;;
3755;SDS011;1893;52.526;13.360;2022-10-15T17:20:24;6.93;;;5.40;;